Time;durP1;ratioP1;P1;durP2;ratioP2;P2;SDS_P1;SDS_P2;PMS_P1;PMS_P2;Temp;Humidity;BMP_temperature;BMP_pressure;BME280_temperature;BME280_humidity;BME280_pressure;Samples;Min_cycle;Max_cycle;Signal;HPM_P1;HPM_P2
2023/06/23 00:00:33;;;;;;;5.00;3.20;;;;;;;25.01;47.45;99015.69;4953872;28;20038;-76
2023/06/23 00:02:59;;;;;;;4.38;3.50;;;;;;;25.00;47.62;99011.38;4936503;29;20031;-75
2023/06/23 00:05:25;;;;;;;4.65;3.40;;;;;;;24.98;48.02;99008.91;4936382;29;20035;-75
2023/06/23 00:07:51;;;;;;;5.97;3.50;;;;;;;24.92;47.82;98999.03;4952483;29;20019;-75
2023/06/23 00:10:16;;;;;;;4.13;3.30;;;;;;;24.95;47.64;99008.50;4936351;29;20395;-76
2023/06/23 00:12:42;;;;;;;5.85;3.22;;;;;;;24.90;47.79;99012.59;4946602;28;20059;-75
2023/06/23 00:15:08;;;;;;;4.50;3.60;;;;;;;24.88;48.19;99011.16;4932909;29;20420;-76
2023/06/23 00:17:36;;;;;;;6.50;3.08;;;;;;;24.84;48.33;99009.91;4917337;29;20412;-75
2023/06/23 00:20:04;;;;;;;4.30;3.60;;;;;;;24.82;48.27;99014.66;4918065;29;20043;-75
2023/06/23 00:22:31;;;;;;;6.00;3.50;;;;;;;24.79;48.38;99009.72;4932971;29;20031;-69
2023/06/23 00:24:56;;;;;;;7.22;3.40;;;;;;;24.77;48.03;99003.75;4933977;29;20067;-79
2023/06/23 00:27:22;;;;;;;4.82;3.58;;;;;;;24.74;48.04;99005.78;4917432;29;20526;-79
2023/06/23 00:29:47;;;;;;;7.07;3.53;;;;;;;24.70;47.98;99001.06;4933116;29;20035;-79
2023/06/23 00:32:13;;;;;;;6.70;3.17;;;;;;;24.65;48.20;99004.34;4917429;29;20495;-79
2023/06/23 00:34:38;;;;;;;4.28;3.00;;;;;;;24.62;48.03;99001.25;4917750;29;20058;-79
2023/06/23 00:37:04;;;;;;;5.18;3.08;;;;;;;24.57;48.35;99007.19;4920498;29;20043;-79
2023/06/23 00:39:30;;;;;;;4.75;3.33;;;;;;;24.52;48.10;99002.44;4935920;29;20044;-79
2023/06/23 00:41:56;;;;;;;4.20;3.45;;;;;;;24.52;48.44;98998.94;4936150;29;20376;-79
2023/06/23 00:44:21;;;;;;;4.95;3.42;;;;;;;24.49;48.54;98994.81;4936355;29;20027;-79
2023/06/23 00:46:47;;;;;;;7.88;3.30;;;;;;;24.47;48.76;99009.41;4935759;29;20032;-80
2023/06/23 00:49:14;;;;;;;4.20;3.38;;;;;;;24.45;48.88;99003.44;4935846;29;20031;-79
2023/06/23 00:51:40;;;;;;;4.13;3.60;;;;;;;24.41;48.65;98997.69;4936089;29;20039;-79
2023/06/23 00:54:05;;;;;;;6.57;3.60;;;;;;;24.42;48.66;98999.34;4951940;29;20364;-80
2023/06/23 00:56:31;;;;;;;6.25;3.45;;;;;;;24.41;48.30;98999.53;4920206;29;20054;-78
2023/06/23 00:58:56;;;;;;;9.15;3.63;;;;;;;24.37;48.75;98994.59;4945977;29;20042;-80
2023/06/23 01:01:22;;;;;;;4.70;3.50;;;;;;;24.36;48.87;98994.78;4938400;29;20035;-79
2023/06/23 01:03:48;;;;;;;6.55;3.50;;;;;;;24.34;49.11;98996.84;4938370;29;20495;-79
2023/06/23 01:06:20;;;;;;;4.80;3.47;;;;;;;24.33;48.98;98995.19;4954532;28;20030;-80
2023/06/23 01:09:01;;;;;;;8.35;3.20;;;;;;;24.27;48.87;98983.47;4952141;28;20027;-80
2023/06/23 01:11:41;;;;;;;5.55;3.40;;;;;;;24.30;48.23;98990.25;4938254;29;20027;-79
2023/06/23 01:14:19;;;;;;;5.47;3.45;;;;;;;24.28;48.51;98993.13;4937564;29;20019;-79
2023/06/23 01:16:50;;;;;;;;;;;;;;;24.26;49.01;98991.66;4952359;28;20023;-79
2023/06/23 01:19:25;;;;;;;7.38;3.22;;;;;;;24.18;48.89;98987.34;4954070;29;19922;-80
2023/06/23 01:22:02;;;;;;;6.60;3.20;;;;;;;24.18;48.54;98990.03;4952827;29;20414;-80
2023/06/23 01:24:31;;;;;;;4.20;3.45;;;;;;;24.17;48.84;98991.03;4952277;29;20550;-80
2023/06/23 01:27:43;;;;;;;5.10;3.80;;;;;;;24.15;48.59;98988.56;4955314;28;20107;-79
2023/06/23 01:30:12;;;;;;;4.13;3.70;;;;;;;24.09;48.58;98975.22;4913096;29;20031;-79
2023/06/23 01:32:41;;;;;;;4.97;3.35;;;;;;;24.10;48.78;98980.34;4899653;29;20052;-79
2023/06/23 01:35:09;;;;;;;4.78;3.55;;;;;;;24.08;49.08;98984.22;4883864;29;20132;-79
2023/06/23 01:37:36;;;;;;;6.47;3.65;;;;;;;24.09;48.96;98996.53;4900174;29;20063;-79
2023/06/23 01:40:13;;;;;;;6.35;3.95;;;;;;;24.07;49.07;98995.91;4899493;29;20555;-79
2023/06/23 01:42:41;;;;;;;4.03;3.47;;;;;;;24.08;49.14;98994.88;4899667;29;20040;-78
2023/06/23 01:45:07;;;;;;;5.07;3.45;;;;;;;24.02;49.33;98983.16;4900059;29;20044;-79
2023/06/23 01:47:39;;;;;;;6.93;4.38;;;;;;;24.05;49.10;98989.94;4898155;29;20138;-78
2023/06/23 01:50:06;;;;;;;6.85;3.80;;;;;;;24.06;49.37;98991.59;4899767;29;20039;-78
2023/06/23 01:52:33;;;;;;;3.90;3.42;;;;;;;24.03;49.55;98990.97;4899349;29;20040;-79
2023/06/23 01:54:59;;;;;;;4.75;3.65;;;;;;;24.02;49.69;98994.66;4915130;29;20056;-79
2023/06/23 01:57:24;;;;;;;4.70;3.60;;;;;;;23.97;49.48;98999.78;4899469;29;20421;-79
2023/06/23 01:59:50;;;;;;;6.25;3.80;;;;;;;24.01;49.66;99000.19;4899531;29;20047;-78
2023/06/23 02:02:15;;;;;;;5.30;3.97;;;;;;;24.02;49.79;98988.50;4883882;29;20039;-79
2023/06/23 02:04:43;;;;;;;8.60;4.00;;;;;;;24.00;49.63;98999.38;4927735;29;20047;-79
2023/06/23 02:07:09;;;;;;;9.43;4.32;;;;;;;23.99;49.73;98994.25;4950722;29;20028;-79
2023/06/23 02:09:35;;;;;;;6.88;3.80;;;;;;;24.00;49.88;98995.88;4950979;29;20067;-79
2023/06/23 02:12:03;;;;;;;6.82;4.10;;;;;;;23.98;49.95;99004.06;4934820;29;20056;-79
2023/06/23 02:14:28;;;;;;;6.55;4.22;;;;;;;23.93;50.13;99003.03;4950489;29;20081;-79
2023/06/23 02:16:54;;;;;;;5.30;3.60;;;;;;;23.90;49.92;99004.22;4950795;29;20118;-79
2023/06/23 02:19:19;;;;;;;10.93;3.80;;;;;;;23.89;50.28;99012.44;4934471;29;20031;-78
2023/06/23 02:21:45;;;;;;;5.13;3.72;;;;;;;23.86;50.44;99016.31;4950976;29;20028;-79
2023/06/23 02:24:10;;;;;;;4.35;3.80;;;;;;;23.84;50.66;99015.69;4936129;29;20558;-79
2023/06/23 02:26:37;;;;;;;4.35;3.88;;;;;;;23.85;50.73;99020.00;4950562;29;20039;-79
2023/06/23 02:29:03;;;;;;;4.35;3.70;;;;;;;23.85;50.99;99022.66;4950779;29;20032;-79
2023/06/23 02:31:28;;;;;;;4.25;3.80;;;;;;;23.87;50.79;99022.47;4934463;29;20039;-79
2023/06/23 02:33:54;;;;;;;5.20;3.90;;;;;;;23.86;50.59;99023.47;4935741;29;20028;-79
2023/06/23 02:36:21;;;;;;;5.40;3.55;;;;;;;23.86;50.87;99021.63;4941190;29;20038;-79
2023/06/23 02:38:48;;;;;;;5.03;4.13;;;;;;;23.82;51.10;99012.38;4950304;29;20086;-79
2023/06/23 02:41:13;;;;;;;8.68;4.03;;;;;;;23.84;51.03;99024.50;4950167;29;20039;-78
2023/06/23 02:43:54;;;;;;;5.72;3.92;;;;;;;23.83;50.96;99022.88;4934266;29;20038;-78
2023/06/23 02:46:23;;;;;;;5.35;4.10;;;;;;;23.86;50.86;99034.16;4951937;28;20082;-78
2023/06/23 02:48:50;;;;;;;4.85;3.95;;;;;;;23.87;50.87;99033.13;4937381;29;20510;-78
2023/06/23 02:51:17;;;;;;;5.75;3.88;;;;;;;23.85;50.67;99028.00;4937539;29;20031;-78
2023/06/23 02:53:47;;;;;;;5.63;4.13;;;;;;;23.88;50.77;99029.44;4953410;29;20058;-78
2023/06/23 02:56:19;;;;;;;8.82;4.50;;;;;;;23.88;50.81;99032.09;4937482;29;20059;-80
2023/06/23 02:58:49;;;;;;;9.02;4.30;;;;;;;23.84;50.80;99023.69;4953196;28;20031;-78
2023/06/23 03:01:14;;;;;;;7.28;4.20;;;;;;;23.90;50.75;99027.41;4953302;29;20486;-80
2023/06/23 03:03:40;;;;;;;9.30;4.03;;;;;;;23.93;50.73;99024.34;4937321;29;20063;-77
2023/06/23 03:06:05;;;;;;;5.22;4.60;;;;;;;23.96;50.74;99030.13;4937488;29;20071;-78
2023/06/23 03:08:31;;;;;;;7.45;3.92;;;;;;;23.99;50.89;99031.56;4937465;29;20039;-78
2023/06/23 03:10:57;;;;;;;7.50;4.32;;;;;;;24.04;50.76;99029.13;4937462;29;20035;-78
2023/06/23 03:13:22;;;;;;;9.07;4.15;;;;;;;24.21;50.58;99024.28;4937490;29;20495;-78
2023/06/23 03:15:49;;;;;;;9.75;4.68;;;;;;;24.40;50.11;99033.41;4937387;29;20122;-78
2023/06/23 03:18:16;;;;;;;7.95;4.45;;;;;;;24.56;49.22;99027.72;4953053;29;20082;-78
2023/06/23 03:20:47;;;;;;;5.57;4.07;;;;;;;24.78;49.14;99035.59;4937136;29;20035;-78
2023/06/23 03:23:14;;;;;;;5.60;4.30;;;;;;;25.01;48.60;99023.72;4953078;29;20035;-78
2023/06/23 03:25:41;;;;;;;6.20;4.30;;;;;;;25.27;47.84;99029.06;4952602;29;20038;-79
2023/06/23 03:28:08;;;;;;;5.00;4.50;;;;;;;25.51;47.38;99036.69;4953075;29;20070;-68
2023/06/23 03:30:44;;;;;;;5.70;4.32;;;;;;;25.68;46.97;99031.75;4952998;28;20078;-73
2023/06/23 03:33:13;;;;;;;4.40;4.00;;;;;;;25.69;47.31;99025.38;4937165;29;20042;-69
2023/06/23 03:35:41;;;;;;;8.10;4.30;;;;;;;25.67;47.65;99025.59;4952962;29;20039;-72
2023/06/23 03:38:09;;;;;;;7.72;4.43;;;;;;;25.68;47.96;99029.91;4952861;29;20364;-73
2023/06/23 03:40:38;;;;;;;5.78;4.18;;;;;;;26.19;46.46;99033.72;4937072;29;20098;-71
2023/06/23 03:43:11;;;;;;;6.88;4.82;;;;;;;26.63;45.90;99033.91;4936692;29;20511;-70
2023/06/23 03:45:37;;;;;;;7.57;4.50;;;;;;;26.98;44.79;99036.19;4934968;28;20040;-72
2023/06/23 03:48:03;;;;;;;7.68;4.80;;;;;;;27.30;44.61;99025.47;4950211;28;20027;-71
2023/06/23 03:50:31;;;;;;;8.65;4.90;;;;;;;27.64;44.11;99026.81;4949725;28;20069;-70
2023/06/23 03:52:57;;;;;;;;;;;;;;;27.98;43.17;99027.34;4952530;29;20031;-73
2023/06/23 03:55:22;;;;;;;7.90;4.75;;;;;;;28.29;42.17;99025.50;4939487;29;19938;-73
2023/06/23 03:57:48;;;;;;;6.00;4.45;;;;;;;28.65;41.80;99024.66;4941324;29;20383;-77
2023/06/23 04:00:14;;;;;;;6.57;4.43;;;;;;;29.03;40.53;99034.25;4917877;29;20039;-71
2023/06/23 04:02:40;;;;;;;5.13;4.20;;;;;;;29.34;40.29;99024.25;4918130;29;20024;-70
2023/06/23 04:05:06;;;;;;;7.43;4.57;;;;;;;29.68;39.94;99029.91;4917418;29;20039;-70
2023/06/23 04:07:31;;;;;;;10.13;4.57;;;;;;;30.09;38.86;99040.72;4903304;29;20024;-71
2023/06/23 04:09:58;;;;;;;7.07;4.65;;;;;;;30.54;38.38;99036.53;4915059;29;20067;-69
2023/06/23 04:12:23;;;;;;;5.55;4.55;;;;;;;30.97;37.16;99040.56;4928222;29;20043;-71
2023/06/23 04:14:51;;;;;;;12.90;4.43;;;;;;;31.46;37.05;99043.53;4936960;29;20043;-74
2023/06/23 04:17:18;;;;;;;12.15;4.40;;;;;;;31.98;35.77;99036.19;4937276;29;20051;-75
2023/06/23 04:19:45;;;;;;;5.80;4.30;;;;;;;32.49;35.19;99034.09;4920816;29;20419;-74
2023/06/23 04:22:10;;;;;;;5.05;4.45;;;;;;;32.97;34.50;99037.88;4921017;29;20028;-73
2023/06/23 04:24:37;;;;;;;4.68;4.18;;;;;;;33.51;33.61;99033.41;4936252;29;20051;-73
2023/06/23 04:27:03;;;;;;;9.23;4.30;;;;;;;34.01;32.23;99045.63;4938535;28;20038;-73
2023/06/23 04:29:28;;;;;;;9.02;4.10;;;;;;;34.46;31.90;99039.84;4939089;29;20039;-73
2023/06/23 04:31:54;;;;;;;6.07;4.15;;;;;;;34.82;31.29;99040.78;4954818;28;20365;-73
2023/06/23 04:34:20;;;;;;;16.20;4.30;;;;;;;35.20;30.18;99037.81;4955058;29;20036;-73
2023/06/23 04:36:52;;;;;;;15.85;4.70;;;;;;;35.66;29.45;99044.03;4950700;29;20028;-74
2023/06/23 04:39:25;;;;;;;18.52;4.57;;;;;;;36.11;28.77;99043.38;4936055;29;20039;-73
2023/06/23 04:41:53;;;;;;;15.00;4.70;;;;;;;36.52;27.98;99051.34;4936368;29;20494;-74
2023/06/23 04:44:18;;;;;;;14.90;4.57;;;;;;;36.93;27.37;99042.94;4936318;29;20087;-74
2023/06/23 04:46:45;;;;;;;13.65;4.38;;;;;;;37.37;26.62;99046.66;4936585;29;20080;-73
2023/06/23 04:49:10;;;;;;;10.30;4.27;;;;;;;37.71;25.54;99046.63;4920329;29;20491;-73
2023/06/23 04:51:48;;;;;;;9.63;4.20;;;;;;;38.14;25.13;99046.66;4935994;29;20035;-72
2023/06/23 04:54:42;;;;;;;15.45;3.95;;;;;;;38.49;24.56;99052.78;4936549;29;20403;-80
2023/06/23 04:57:13;;;;;;;10.88;4.15;;;;;;;38.87;24.34;99049.22;4937032;29;20048;-77
2023/06/23 04:59:39;;;;;;;9.35;3.88;;;;;;;39.18;23.58;99048.78;4920108;29;20050;-77
2023/06/23 05:02:05;;;;;;;8.33;3.77;;;;;;;39.59;22.94;99050.81;4935815;29;20051;-78
2023/06/23 05:04:31;;;;;;;9.10;3.80;;;;;;;39.88;22.21;99058.69;4904576;29;20399;-81
2023/06/23 05:06:56;;;;;;;9.73;3.83;;;;;;;40.15;21.75;99060.66;4930925;29;20050;-76
2023/06/23 05:09:22;;;;;;;11.88;3.88;;;;;;;40.46;21.56;99064.66;4949037;29;20052;-75
2023/06/23 05:11:47;;;;;;;9.77;3.60;;;;;;;40.68;21.33;99055.69;4935977;29;20404;-77
2023/06/23 05:14:13;;;;;;;10.50;4.10;;;;;;;40.98;21.05;99053.38;4933639;29;20032;-77
2023/06/23 05:16:38;;;;;;;10.63;4.10;;;;;;;41.25;20.69;99063.34;4917570;29;20051;-76
2023/06/23 05:19:06;;;;;;;12.98;3.80;;;;;;;41.63;19.74;99060.19;4934631;29;20034;-77
2023/06/23 05:21:31;;;;;;;16.30;4.35;;;;;;;41.94;19.95;99062.91;4919346;29;20514;-78
2023/06/23 05:23:57;;;;;;;13.60;3.58;;;;;;;42.26;19.73;99062.84;4919885;29;20114;-77
2023/06/23 05:26:24;;;;;;;12.43;3.83;;;;;;;42.52;19.34;99057.38;4920180;29;20044;-76
2023/06/23 05:28:50;;;;;;;8.60;3.70;;;;;;;42.70;19.27;99062.88;4951494;29;20032;-76
2023/06/23 05:31:15;;;;;;;8.07;3.70;;;;;;;42.92;18.91;99057.25;4919982;29;20044;-77
2023/06/23 05:33:42;;;;;;;6.80;3.60;;;;;;;43.08;18.83;99062.22;4919618;29;20440;-78
2023/06/23 05:36:09;;;;;;;8.38;3.78;;;;;;;43.25;18.75;99067.69;4935818;29;20484;-76
2023/06/23 05:38:34;;;;;;;8.10;3.80;;;;;;;43.51;18.53;99070.38;4935422;29;20040;-77
2023/06/23 05:41:00;;;;;;;8.57;3.40;;;;;;;43.75;18.55;99073.69;4920165;29;20042;-78
2023/06/23 05:43:25;;;;;;;6.93;3.60;;;;;;;43.87;18.21;99069.13;4919601;29;20423;-77
2023/06/23 05:45:51;;;;;;;14.07;3.50;;;;;;;43.99;18.29;99071.16;4935473;29;20054;-77
2023/06/23 05:48:27;;;;;;;7.50;3.43;;;;;;;44.09;17.64;99076.28;4935496;29;20047;-76
2023/06/23 05:50:54;;;;;;;10.20;3.30;;;;;;;44.23;17.67;99075.25;4935810;29;20140;-76
2023/06/23 05:53:20;;;;;;;;;;;;;;;44.12;17.39;99080.31;4936070;29;20032;-77
2023/06/23 05:56:00;;;;;;;9.65;3.60;;;;;;;44.23;17.21;99084.34;4936148;29;19929;-77
2023/06/23 05:58:28;;;;;;;16.60;4.07;;;;;;;44.41;16.47;99084.22;4935206;29;20126;-78
2023/06/23 06:00:55;;;;;;;12.45;4.50;;;;;;;44.45;16.68;99083.19;4935312;29;20048;-76
2023/06/23 06:03:22;;;;;;;12.63;4.95;;;;;;;44.49;16.21;99080.59;4919354;29;20040;-78
2023/06/23 06:05:51;;;;;;;10.35;5.43;;;;;;;44.41;16.80;99079.50;4935498;29;20082;-76
2023/06/23 06:08:16;;;;;;;14.02;5.38;;;;;;;44.34;17.17;99092.97;4951026;29;20036;-75
2023/06/23 06:10:42;;;;;;;14.93;5.83;;;;;;;43.66;18.08;99079.22;4950826;29;20547;-76
2023/06/23 06:13:07;;;;;;;18.23;6.17;;;;;;;43.62;18.16;99090.06;4950885;28;20059;-76
2023/06/23 06:15:33;;;;;;;22.17;5.90;;;;;;;43.75;17.66;99084.69;4950874;29;20039;-79
2023/06/23 06:18:01;;;;;;;21.93;6.37;;;;;;;44.11;17.12;99091.63;4918992;29;20032;-78
2023/06/23 06:20:27;;;;;;;17.55;5.97;;;;;;;44.23;16.73;99080.75;4935295;29;20046;-76
2023/06/23 06:22:52;;;;;;;18.60;6.07;;;;;;;44.35;16.69;99086.34;4934482;29;20044;-77
2023/06/23 06:25:18;;;;;;;10.90;5.10;;;;;;;44.44;16.80;99078.84;4934892;29;20070;-76
2023/06/23 06:27:44;;;;;;;10.07;4.97;;;;;;;44.56;16.25;99080.03;4935472;29;20135;-77
2023/06/23 06:30:10;;;;;;;15.70;5.10;;;;;;;44.54;16.25;99076.81;4934807;29;20042;-77
2023/06/23 06:32:37;;;;;;;9.77;4.35;;;;;;;44.68;15.82;99082.06;4918560;29;20384;-76
2023/06/23 06:35:05;;;;;;;10.63;4.47;;;;;;;44.65;16.40;99074.50;4935581;29;20034;-76
2023/06/23 06:37:36;;;;;;;14.35;4.40;;;;;;;44.66;16.72;99074.13;4934465;29;20046;-76
2023/06/23 06:40:05;;;;;;;9.48;4.45;;;;;;;44.74;16.00;99069.72;4934561;29;20043;-78
2023/06/23 06:42:31;;;;;;;14.13;4.60;;;;;;;44.29;16.14;99059.38;4950202;29;20039;-76
2023/06/23 06:44:57;;;;;;;12.77;4.40;;;;;;;44.31;16.36;99057.88;4934548;29;20122;-77
2023/06/23 06:47:22;;;;;;;10.67;4.20;;;;;;;44.32;16.45;99059.50;4918910;29;20050;-76
2023/06/23 06:49:48;;;;;;;18.20;4.43;;;;;;;44.39;16.65;99054.28;4934463;29;20480;-76
2023/06/23 06:52:13;;;;;;;10.90;4.47;;;;;;;44.32;16.64;99059.50;4934239;29;20046;-76
2023/06/23 06:54:39;;;;;;;10.77;4.37;;;;;;;44.31;16.87;99059.84;4933916;29;20047;-77
2023/06/23 06:57:05;;;;;;;12.70;4.10;;;;;;;44.28;16.72;99052.25;4934339;29;20052;-76
2023/06/23 06:59:31;;;;;;;12.27;4.60;;;;;;;44.20;16.52;99046.50;4934438;29;20028;-76
2023/06/23 07:01:56;;;;;;;14.83;4.43;;;;;;;44.13;16.80;99048.91;4918513;29;20027;-77
2023/06/23 07:04:21;;;;;;;18.80;4.30;;;;;;;44.06;16.95;99043.97;4918506;29;20054;-76
2023/06/23 07:06:53;;;;;;;14.83;4.30;;;;;;;43.94;16.55;99043.88;4934388;29;20042;-76
2023/06/23 07:09:19;;;;;;;11.93;3.90;;;;;;;43.75;16.99;99044.25;4935419;29;20032;-76
2023/06/23 07:11:48;;;;;;;13.50;4.17;;;;;;;43.77;17.27;99046.69;4934065;29;20035;-77
2023/06/23 07:14:13;;;;;;;12.27;4.32;;;;;;;43.75;17.47;99043.47;4934588;29;20114;-76
2023/06/23 07:16:39;;;;;;;10.77;4.40;;;;;;;43.70;17.45;99045.25;4950114;29;20035;-76
2023/06/23 07:19:04;;;;;;;9.20;3.97;;;;;;;43.65;17.77;99037.19;4918217;29;20067;-75
2023/06/23 07:21:30;;;;;;;13.60;4.10;;;;;;;43.64;17.94;99049.31;4935149;29;20039;-77
2023/06/23 07:23:55;;;;;;;15.47;4.00;;;;;;;43.51;17.89;99053.09;4935166;29;20036;-76
2023/06/23 07:26:21;;;;;;;13.33;3.80;;;;;;;43.30;17.21;99053.78;4934195;29;20090;-77
2023/06/23 07:28:46;;;;;;;14.63;4.03;;;;;;;43.17;17.68;99047.38;4935292;29;20088;-76
2023/06/23 07:31:12;;;;;;;11.63;4.10;;;;;;;43.12;17.71;99046.72;4950191;29;20036;-77
2023/06/23 07:33:40;;;;;;;7.80;3.80;;;;;;;43.13;18.02;99049.16;4949961;29;20415;-76
2023/06/23 07:36:06;;;;;;;10.38;4.10;;;;;;;43.09;17.86;99052.88;4934141;29;20031;-78
2023/06/23 07:38:31;;;;;;;10.37;4.20;;;;;;;42.96;17.45;99051.91;4933804;29;20066;-76
2023/06/23 07:40:56;;;;;;;10.60;4.10;;;;;;;42.75;17.80;99046.28;4935383;29;20039;-75
2023/06/23 07:43:22;;;;;;;10.33;4.30;;;;;;;42.69;18.04;99047.56;4934325;29;20028;-78
2023/06/23 07:45:47;;;;;;;12.73;4.03;;;;;;;42.56;18.28;99049.31;4937994;29;20055;-77
2023/06/23 07:48:13;;;;;;;6.93;3.60;;;;;;;42.37;17.88;99049.59;4954120;28;20127;-77
2023/06/23 07:50:38;;;;;;;9.77;3.60;;;;;;;42.33;18.67;99041.22;4953722;29;20401;-76
2023/06/23 07:53:04;;;;;;;7.63;3.60;;;;;;;42.34;18.74;99042.06;4953676;29;20087;-77
2023/06/23 07:55:29;;;;;;;11.67;4.10;;;;;;;42.25;18.45;99042.03;4921851;29;20083;-77
2023/06/23 07:57:55;;;;;;;13.37;4.07;;;;;;;42.07;18.95;99041.19;4937870;29;20055;-78
2023/06/23 08:00:23;;;;;;;11.43;4.03;;;;;;;42.02;18.84;99036.66;4937615;29;20123;-76
2023/06/23 08:02:49;;;;;;;8.07;3.80;;;;;;;41.75;18.39;99019.31;4938743;29;20039;-77
2023/06/23 08:05:14;;;;;;;7.50;3.58;;;;;;;41.35;19.04;99030.22;4937371;29;20028;-78
2023/06/23 08:07:40;;;;;;;11.43;4.00;;;;;;;41.46;19.11;99028.03;4937403;29;20042;-77
2023/06/23 08:10:05;;;;;;;9.60;3.42;;;;;;;41.36;19.36;99022.84;4938640;29;20035;-77
2023/06/23 08:12:35;;;;;;;6.72;3.83;;;;;;;41.37;19.27;99022.53;4937345;29;20059;-77
2023/06/23 08:15:01;;;;;;;15.23;4.15;;;;;;;41.31;19.34;99018.31;4937282;29;20502;-75
2023/06/23 08:17:26;;;;;;;7.40;3.35;;;;;;;41.34;19.94;99020.44;4921400;29;20040;-75
2023/06/23 08:19:52;;;;;;;9.60;3.70;;;;;;;41.19;19.36;99020.78;4953086;29;20032;-77
2023/06/23 08:22:17;;;;;;;9.93;3.55;;;;;;;41.15;19.96;99022.53;4936975;29;20040;-76
2023/06/23 08:24:43;;;;;;;8.80;3.25;;;;;;;41.03;20.21;99026.66;4938372;29;20038;-76
2023/06/23 08:27:08;;;;;;;9.52;3.47;;;;;;;41.05;20.06;99024.44;4938436;29;20063;-77
2023/06/23 08:29:37;;;;;;;7.50;3.20;;;;;;;41.00;20.43;99030.00;4936872;29;20032;-76
2023/06/23 08:32:03;;;;;;;7.70;3.88;;;;;;;40.95;20.47;99019.19;4947825;29;20070;-76
2023/06/23 08:34:28;;;;;;;8.30;3.63;;;;;;;40.87;20.46;99009.81;4956023;29;20027;-76
2023/06/23 08:36:54;;;;;;;8.30;3.85;;;;;;;40.74;20.40;99004.38;4955696;29;20094;-76
2023/06/23 08:39:20;;;;;;;6.25;4.00;;;;;;;40.64;21.23;99019.09;4956814;28;20027;-78
2023/06/23 08:41:46;;;;;;;6.53;3.40;;;;;;;40.53;21.27;99007.59;4956840;28;20031;-77
2023/06/23 08:44:14;;;;;;;5.07;3.20;;;;;;;40.57;21.40;99005.88;4939845;29;20342;-76
2023/06/23 08:46:40;;;;;;;4.45;2.95;;;;;;;40.30;21.18;99002.06;4955713;29;20031;-77
2023/06/23 08:49:06;;;;;;;4.30;3.03;;;;;;;40.33;21.25;99006.13;4955491;29;20038;-77
2023/06/23 08:51:33;;;;;;;6.20;3.17;;;;;;;40.26;21.52;99006.53;4957216;28;20027;-76
2023/06/23 08:53:58;;;;;;;5.30;3.20;;;;;;;40.19;21.65;98999.88;4955932;29;20043;-77
2023/06/23 08:56:25;;;;;;;6.63;3.08;;;;;;;40.00;21.84;99000.81;4955246;28;20388;-77
2023/06/23 08:58:50;;;;;;;7.32;2.92;;;;;;;39.74;21.84;98995.88;4939925;29;20035;-76
2023/06/23 09:01:16;;;;;;;7.03;3.30;;;;;;;39.74;21.46;98995.88;4955509;29;20407;-77
2023/06/23 09:03:41;;;;;;;6.70;2.92;;;;;;;39.63;22.20;98994.44;4939800;29;20035;-77
2023/06/23 09:06:07;;;;;;;4.97;3.10;;;;;;;39.54;22.52;98996.28;4955561;29;20031;-76
2023/06/23 09:08:32;;;;;;;5.35;3.40;;;;;;;39.49;22.67;98990.88;4956789;28;20090;-76
2023/06/23 09:10:58;;;;;;;4.28;2.78;;;;;;;39.48;22.75;98992.00;4955421;29;20480;-77
2023/06/23 09:13:27;;;;;;;3.63;3.00;;;;;;;39.38;23.27;98979.34;4956505;28;20117;-76
2023/06/23 09:15:53;;;;;;;6.85;3.35;;;;;;;39.36;23.39;98982.38;4939544;29;20023;-76
2023/06/23 09:18:19;;;;;;;7.63;3.47;;;;;;;39.32;23.27;98986.81;4939184;29;20043;-76
2023/06/23 09:20:47;;;;;;;3.92;3.33;;;;;;;39.26;24.00;98983.34;4939419;29;20051;-77
2023/06/23 09:23:14;;;;;;;5.18;3.28;;;;;;;39.09;23.71;98980.41;4956491;28;20058;-76
2023/06/23 09:25:41;;;;;;;8.15;3.42;;;;;;;38.96;24.09;98986.63;4939300;29;20395;-76
2023/06/23 09:28:06;;;;;;;9.88;3.72;;;;;;;38.68;23.32;98981.06;4955185;29;20035;-77
2023/06/23 09:30:33;;;;;;;9.75;3.58;;;;;;;38.56;24.01;98978.78;4955051;29;20035;-75
2023/06/23 09:32:59;;;;;;;9.77;3.65;;;;;;;38.53;24.53;98973.91;4954867;29;20050;-76
2023/06/23 09:35:25;;;;;;;4.23;3.70;;;;;;;38.53;24.62;98979.38;4954782;29;20098;-75
2023/06/23 09:37:50;;;;;;;7.05;3.50;;;;;;;38.54;24.80;98972.81;4956086;28;20031;-76
2023/06/23 09:40:16;;;;;;;5.30;3.90;;;;;;;38.40;24.36;98969.19;4954424;29;20525;-76
2023/06/23 09:42:45;;;;;;;6.60;3.42;;;;;;;38.28;24.76;98975.91;4954621;29;20174;-77
2023/06/23 09:45:17;;;;;;;4.55;3.55;;;;;;;38.23;25.12;98975.19;4938808;29;20047;-76
2023/06/23 09:47:43;;;;;;;6.53;3.55;;;;;;;38.16;25.28;98983.72;4955768;28;20031;-76
2023/06/23 09:50:15;;;;;;;5.53;3.60;;;;;;;38.04;24.97;98978.66;4956005;28;20042;-76
2023/06/23 09:52:40;;;;;;;7.85;3.53;;;;;;;37.96;25.08;98962.97;4939399;29;20376;-76
2023/06/23 09:55:07;;;;;;;6.50;3.95;;;;;;;37.92;25.01;98962.72;4954182;29;20091;-77
2023/06/23 09:57:32;;;;;;;7.82;3.80;;;;;;;37.87;25.37;98972.91;4955698;28;20034;-75
2023/06/23 09:59:58;;;;;;;8.75;3.72;;;;;;;37.57;25.21;98964.78;4955515;28;20028;-77
2023/06/23 10:02:29;;;;;;;5.15;3.50;;;;;;;37.51;25.65;98959.69;4954355;29;20043;-76
2023/06/23 10:04:59;;;;;;;4.85;3.40;;;;;;;37.38;25.71;98958.47;4938379;29;20495;-78
2023/06/23 10:07:26;;;;;;;6.90;3.63;;;;;;;37.07;26.11;98956.84;4955102;28;20035;-77
2023/06/23 10:10:04;;;;;;;7.78;4.43;;;;;;;36.97;26.07;98954.22;4955843;28;20071;-75
2023/06/23 10:12:29;;;;;;;5.90;3.63;;;;;;;36.86;26.25;98953.50;4954356;29;20069;-77
2023/06/23 10:14:56;;;;;;;7.82;3.55;;;;;;;36.65;26.68;98947.38;4954023;29;20463;-76
2023/06/23 10:17:21;;;;;;;6.38;3.78;;;;;;;36.54;26.63;98951.28;4938638;29;20133;-75
2023/06/23 10:19:48;;;;;;;9.95;4.20;;;;;;;36.37;26.87;98948.94;4937903;29;20435;-76
2023/06/23 10:22:14;;;;;;;7.70;3.70;;;;;;;36.25;26.97;98949.31;4938121;29;20057;-76
2023/06/23 10:24:40;;;;;;;8.93;3.85;;;;;;;36.21;27.70;98951.75;4954048;29;20039;-79
2023/06/23 10:27:06;;;;;;;6.38;4.00;;;;;;;36.25;27.52;98943.03;4937832;29;20086;-76
2023/06/23 10:29:41;;;;;;;11.07;3.97;;;;;;;36.07;27.11;98948.00;5069644;28;20394;-75
2023/06/23 10:32:07;;;;;;;6.40;4.10;;;;;;;35.95;27.58;98939.41;5036136;28;20136;-76
2023/06/23 10:34:33;;;;;;;6.53;3.78;;;;;;;35.83;27.63;98942.44;5051833;28;20053;-79
2023/06/23 10:37:00;;;;;;;4.50;3.67;;;;;;;35.82;27.75;98936.19;5035102;28;20037;-77
2023/06/23 10:39:26;;;;;;;6.50;4.38;;;;;;;35.77;27.39;98927.25;5051961;28;20029;-76
2023/06/23 10:41:52;;;;;;;11.10;4.32;;;;;;;35.51;27.14;98936.28;5051554;28;20036;-77
2023/06/23 10:44:18;;;;;;;5.60;4.03;;;;;;;35.49;27.57;98932.22;5051426;28;20039;-77
2023/06/23 10:46:44;;;;;;;6.90;4.00;;;;;;;35.55;27.94;98928.41;5034782;28;20033;-76
2023/06/23 10:49:09;;;;;;;5.25;3.90;;;;;;;35.59;27.72;98929.47;5051133;28;20025;-76
2023/06/23 10:51:36;;;;;;;7.28;4.05;;;;;;;35.65;27.76;98925.66;5034953;28;20032;-76
2023/06/23 10:54:04;;;;;;;5.88;4.15;;;;;;;35.67;28.06;98917.22;5068183;28;20040;-76
2023/06/23 10:56:35;;;;;;;5.63;3.90;;;;;;;35.48;27.71;98923.25;5051594;28;20120;-77
2023/06/23 10:59:18;;;;;;;6.07;3.92;;;;;;;35.49;27.40;98916.75;5051421;28;20028;-77
2023/06/23 11:01:59;;;;;;;6.68;3.80;;;;;;;35.36;27.49;98925.50;5068019;28;20027;-76
2023/06/23 11:04:26;;;;;;;6.97;3.88;;;;;;;35.28;27.71;98918.72;5068837;28;20021;-76
2023/06/23 11:07:07;;;;;;;8.00;3.80;;;;;;;34.96;27.71;98913.59;5050932;28;20102;-76
2023/06/23 11:09:52;;;;;;;5.85;3.72;;;;;;;34.90;27.68;98920.94;5035308;28;20029;-78
2023/06/23 11:12:30;;;;;;;8.75;3.70;;;;;;;34.83;27.81;98916.88;5068935;28;20052;-76
2023/06/23 11:15:13;;;;;;;5.07;3.80;;;;;;;34.83;27.88;98895.19;5034692;28;20345;-77
2023/06/23 11:17:43;;;;;;;6.50;3.92;;;;;;;34.66;28.13;98896.22;5052866;28;20021;-77
2023/06/23 11:20:13;;;;;;;9.40;3.63;;;;;;;34.71;28.05;98903.56;5035084;28;20040;-76
2023/06/23 11:22:42;;;;;;;6.13;3.72;;;;;;;34.70;28.22;98889.19;5050754;28;20167;-77
2023/06/23 11:25:08;;;;;;;5.10;3.67;;;;;;;34.67;27.99;98895.16;5034515;28;20033;-78
2023/06/23 11:27:34;;;;;;;7.40;3.53;;;;;;;34.70;27.93;98896.53;5050256;28;20091;-78
2023/06/23 11:30:17;;;;;;;3.97;3.58;;;;;;;34.71;27.96;98890.00;5068628;28;20484;-78
2023/06/23 11:32:43;;;;;;;9.27;3.95;;;;;;;34.72;28.02;98891.63;5066966;28;20028;-76